createdAt,value
2019-02-05T00:00:53.339Z,23.80
2019-02-05T00:01:34.599Z,23.12
2019-02-05T00:02:14.019Z,23.27
2019-02-05T00:02:49.659Z,23.83
2019-02-05T00:03:25.383Z,23.57
2019-02-05T00:04:01.649Z,22.13
2019-02-05T00:04:37.322Z,22.67
2019-02-05T00:05:13.290Z,23.47
2019-02-05T00:05:49.226Z,22.70
2019-02-05T00:06:25.222Z,21.85
2019-02-05T00:07:01.122Z,23.57
2019-02-05T00:07:36.882Z,22.77
2019-02-05T00:08:12.609Z,22.60
2019-02-05T00:08:48.381Z,23.60
2019-02-05T00:09:24.061Z,23.10
2019-02-05T00:10:02.131Z,22.77
2019-02-05T00:10:38.281Z,23.73
2019-02-05T00:11:14.001Z,23.02
2019-02-05T00:11:50.175Z,21.70
2019-02-05T00:12:25.933Z,23.35
2019-02-05T00:13:01.976Z,23.15
2019-02-05T00:13:38.065Z,23.00
2019-02-05T00:14:14.194Z,23.20
2019-02-05T00:14:50.145Z,23.05
2019-02-05T00:15:26.253Z,23.60
2019-02-05T00:16:02.412Z,23.38
2019-02-05T00:16:38.386Z,23.90
2019-02-05T00:17:14.405Z,22.40
2019-02-05T00:17:50.214Z,22.55
2019-02-05T00:18:26.058Z,22.90
2019-02-05T00:19:01.935Z,21.73
2019-02-05T00:19:37.733Z,22.22
2019-02-05T00:20:13.853Z,22.07
2019-02-05T00:20:49.686Z,22.90
2019-02-05T00:21:25.593Z,22.75
2019-02-05T00:22:01.365Z,22.48
2019-02-05T00:22:37.085Z,21.65
2019-02-05T00:23:12.953Z,22.13
2019-02-05T00:23:49.068Z,22.85
2019-02-05T00:24:24.913Z,22.77
2019-02-05T00:25:00.693Z,22.75
2019-02-05T00:25:36.546Z,23.22
2019-02-05T00:26:12.425Z,23.02
2019-02-05T00:26:48.253Z,22.45
2019-02-05T00:27:24.306Z,22.90
2019-02-05T00:28:00.373Z,21.33
2019-02-05T00:28:36.533Z,22.95
2019-02-05T00:29:12.233Z,21.80
2019-02-05T00:29:48.205Z,23.38
2019-02-05T00:30:23.847Z,23.02
2019-02-05T00:30:59.560Z,22.45
2019-02-05T00:31:35.442Z,22.10
2019-02-05T00:32:11.350Z,23.00
2019-02-05T00:32:47.504Z,20.97
2019-02-05T00:33:23.427Z,21.77
2019-02-05T00:33:59.095Z,21.70
2019-02-05T00:34:34.878Z,22.32
2019-02-05T00:35:10.855Z,22.45
2019-02-05T00:35:46.667Z,22.22
2019-02-05T00:36:22.467Z,23.67
2019-02-05T00:36:58.276Z,22.62
2019-02-05T00:37:34.327Z,23.32
2019-02-05T00:38:10.187Z,22.60
2019-02-05T00:38:45.898Z,22.40
2019-02-05T00:39:21.861Z,22.32
2019-02-05T00:39:57.712Z,22.32
2019-02-05T00:40:33.431Z,22.10
2019-02-05T00:41:09.451Z,21.97
2019-02-05T00:41:45.210Z,23.02
2019-02-05T00:42:21.364Z,22.25
2019-02-05T00:42:57.185Z,21.27
2019-02-05T00:43:33.127Z,22.17
2019-02-05T00:44:08.987Z,22.48
2019-02-05T00:44:44.676Z,22.32
2019-02-05T00:45:21.038Z,22.45
2019-02-05T00:45:56.824Z,22.17
2019-02-05T00:46:32.807Z,22.00
2019-02-05T00:47:08.537Z,22.90
2019-02-05T00:47:44.156Z,22.45
2019-02-05T00:48:20.025Z,21.23
2019-02-05T00:48:55.864Z,21.80
2019-02-05T00:49:31.725Z,22.27
2019-02-05T00:50:08.584Z,22.15
2019-02-05T00:50:44.424Z,20.88
2019-02-05T00:51:20.477Z,21.40
2019-02-05T00:51:56.287Z,21.93
2019-02-05T00:52:32.076Z,21.65
2019-02-05T00:53:07.916Z,23.32
2019-02-05T00:53:43.536Z,21.52
2019-02-05T00:54:19.249Z,22.95
2019-02-05T00:54:55.214Z,21.57
2019-02-05T00:55:30.916Z,20.90
2019-02-05T00:56:17.080Z,22.80
2019-02-05T00:56:44.584Z,22.02
2019-02-05T00:57:20.296Z,21.68
2019-02-05T00:57:56.126Z,22.40
2019-02-05T00:58:31.977Z,22.07
2019-02-05T00:59:07.796Z,22.10
2019-02-05T00:59:43.586Z,21.70
2019-02-05T01:00:27.807Z,22.22
2019-02-05T01:01:03.971Z,21.20
2019-02-05T01:01:39.847Z,22.15
2019-02-05T01:02:15.770Z,20.72
2019-02-05T01:02:52.247Z,21.73
2019-02-05T01:03:27.955Z,20.97
2019-02-05T01:04:03.866Z,20.55
2019-02-05T01:04:39.627Z,20.43
2019-02-05T01:05:16.309Z,21.23
2019-02-05T01:05:52.187Z,20.60
2019-02-05T01:06:28.241Z,21.17
2019-02-05T01:07:04.099Z,21.95
2019-02-05T01:07:39.996Z,22.17
2019-02-05T01:08:15.696Z,21.87
2019-02-05T01:08:51.417Z,21.87
2019-02-05T01:09:27.337Z,21.68
2019-02-05T01:10:03.076Z,21.35
2019-02-05T01:10:38.944Z,21.57
2019-02-05T01:11:14.799Z,22.07
2019-02-05T01:11:50.560Z,21.82
2019-02-05T01:12:26.379Z,21.37
2019-02-05T01:13:02.311Z,21.57
2019-02-05T01:13:38.129Z,21.20
2019-02-05T01:14:14.191Z,20.92
2019-02-05T01:14:49.831Z,20.82
2019-02-05T01:15:26.493Z,21.55
2019-02-05T01:16:02.386Z,21.65
2019-02-05T01:16:38.020Z,21.45
2019-02-05T01:17:13.849Z,21.20
2019-02-05T01:17:49.620Z,21.93
2019-02-05T01:18:25.581Z,21.45
2019-02-05T01:19:01.682Z,20.97
2019-02-05T01:19:37.460Z,21.48
2019-02-05T01:20:16.211Z,21.82
2019-02-05T01:20:52.022Z,20.65
2019-02-05T01:21:27.728Z,21.25
2019-02-05T01:22:03.782Z,22.02
2019-02-05T01:22:39.641Z,21.25
2019-02-05T01:23:15.440Z,20.37
2019-02-05T01:23:51.283Z,20.70
2019-02-05T01:24:27.163Z,21.93
2019-02-05T01:25:02.844Z,20.75
2019-02-05T01:25:38.844Z,21.70
2019-02-05T01:26:15.787Z,21.02
2019-02-05T01:26:51.300Z,21.15
2019-02-05T01:27:27.080Z,21.17
2019-02-05T01:28:03.039Z,21.40
2019-02-05T01:28:38.641Z,21.25
2019-02-05T01:29:14.387Z,21.85
2019-02-05T01:29:50.341Z,20.12
2019-02-05T01:30:27.319Z,20.92
2019-02-05T01:31:03.019Z,22.17
2019-02-05T01:31:39.195Z,21.20
2019-02-05T01:32:14.826Z,20.65
2019-02-05T01:32:50.842Z,20.62
2019-02-05T01:33:26.948Z,20.80
2019-02-05T01:34:02.610Z,21.33
2019-02-05T01:34:38.384Z,20.23
2019-02-05T01:35:14.470Z,20.52
2019-02-05T01:35:50.110Z,21.57
2019-02-05T01:36:25.718Z,21.52
2019-02-05T01:37:01.561Z,21.37
2019-02-05T01:37:38.506Z,21.52
2019-02-05T01:38:14.394Z,21.05
2019-02-05T01:38:50.170Z,20.20
2019-02-05T01:39:25.870Z,21.85
2019-02-05T01:40:01.712Z,20.75
2019-02-05T01:40:37.698Z,21.50
2019-02-05T01:41:13.371Z,20.43
2019-02-05T01:41:48.831Z,20.82
2019-02-05T01:42:24.490Z,21.35
2019-02-05T01:43:00.230Z,21.17
2019-02-05T01:43:36.078Z,20.65
2019-02-05T01:44:12.095Z,20.32
2019-02-05T01:44:47.890Z,19.92
2019-02-05T01:45:24.439Z,20.88
2019-02-05T01:46:00.098Z,21.30
2019-02-05T01:46:35.990Z,20.68
2019-02-05T01:47:11.711Z,21.17
2019-02-05T01:47:47.742Z,20.60
2019-02-05T01:48:23.398Z,19.50
2019-02-05T01:48:59.150Z,21.02
2019-02-05T01:49:34.753Z,20.40
2019-02-05T01:50:11.030Z,20.80
2019-02-05T01:50:46.899Z,20.85
2019-02-05T01:51:22.709Z,21.35
2019-02-05T01:51:58.369Z,21.15
2019-02-05T01:52:34.209Z,19.75
2019-02-05T01:53:09.829Z,20.32
2019-02-05T01:53:45.490Z,21.15
2019-02-05T01:54:21.089Z,21.35
2019-02-05T01:54:56.870Z,20.17
2019-02-05T01:55:32.712Z,19.85
2019-02-05T01:56:08.475Z,20.82
2019-02-05T01:56:44.649Z,20.12
2019-02-05T01:57:20.389Z,20.65
2019-02-05T01:57:56.209Z,19.62
2019-02-05T01:58:31.769Z,19.32
2019-02-05T01:59:07.424Z,20.08
2019-02-05T01:59:43.167Z,21.85
2019-02-05T02:00:24.426Z,19.67
2019-02-05T02:01:00.233Z,20.62
2019-02-05T02:01:36.185Z,20.17
2019-02-05T02:02:11.905Z,20.27
2019-02-05T02:02:47.653Z,20.55
2019-02-05T02:03:23.665Z,21.80
2019-02-05T02:03:59.357Z,20.43
2019-02-05T02:04:35.116Z,20.57
2019-02-05T02:05:11.144Z,20.12
2019-02-05T02:05:46.844Z,20.97
2019-02-05T02:06:22.744Z,20.23
2019-02-05T02:06:58.547Z,19.73
2019-02-05T02:07:34.895Z,20.57
2019-02-05T02:08:11.022Z,19.37
2019-02-05T02:08:47.343Z,21.50
2019-02-05T02:09:23.461Z,20.02
2019-02-05T02:09:59.350Z,20.27
2019-02-05T02:10:35.422Z,20.27
2019-02-05T02:11:11.462Z,20.77
2019-02-05T02:11:47.662Z,20.77
2019-02-05T02:12:23.481Z,19.57
2019-02-05T02:12:59.861Z,20.10
2019-02-05T02:13:35.826Z,20.52
2019-02-05T02:14:12.058Z,20.17
2019-02-05T02:14:47.946Z,18.98
2019-02-05T02:15:24.279Z,20.62
2019-02-05T02:16:00.704Z,20.35
2019-02-05T02:16:37.114Z,19.48
2019-02-05T02:17:13.100Z,20.27
2019-02-05T02:17:49.274Z,19.25
2019-02-05T02:18:25.293Z,21.77
2019-02-05T02:19:01.485Z,20.27
2019-02-05T02:19:37.884Z,20.43
2019-02-05T02:20:15.608Z,19.40
2019-02-05T02:20:51.647Z,19.50
2019-02-05T02:21:27.150Z,20.00
2019-02-05T02:22:02.469Z,19.32
2019-02-05T02:22:38.030Z,19.73
2019-02-05T02:23:13.311Z,19.90
2019-02-05T02:23:48.870Z,20.40
2019-02-05T02:24:24.216Z,20.17
2019-02-05T02:24:59.716Z,19.12
2019-02-05T02:25:35.668Z,19.57
2019-02-05T02:26:11.251Z,20.25
2019-02-05T02:26:52.087Z,19.20
2019-02-05T02:27:24.348Z,20.05
2019-02-05T02:28:00.508Z,19.87
2019-02-05T02:28:36.145Z,20.02
2019-02-05T02:29:11.624Z,20.72
2019-02-05T02:29:47.265Z,19.73
2019-02-05T02:30:26.226Z,19.73
2019-02-05T02:31:01.628Z,20.02
2019-02-05T02:31:37.111Z,19.32
2019-02-05T02:32:12.572Z,20.27
2019-02-05T02:32:48.226Z,19.77
2019-02-05T02:33:23.664Z,20.37
2019-02-05T02:33:59.111Z,19.98
2019-02-05T02:34:34.625Z,19.98
2019-02-05T02:35:10.373Z,20.48
2019-02-05T02:35:45.865Z,19.80
2019-02-05T02:36:21.304Z,18.77
2019-02-05T02:36:56.933Z,20.75
2019-02-05T02:37:32.685Z,19.20
2019-02-05T02:38:08.546Z,20.48
2019-02-05T02:38:43.846Z,20.17
2019-02-05T02:39:19.388Z,18.42
2019-02-05T02:39:54.706Z,19.48
2019-02-05T02:40:30.055Z,20.08
2019-02-05T02:41:05.558Z,19.50
2019-02-05T02:41:41.026Z,19.62
2019-02-05T02:42:16.424Z,19.87
2019-02-05T02:42:52.375Z,18.92
2019-02-05T02:43:27.787Z,20.35
2019-02-05T02:44:03.427Z,20.23
2019-02-05T02:44:38.947Z,19.62
2019-02-05T02:45:14.667Z,20.52
2019-02-05T02:45:50.187Z,18.62
2019-02-05T02:46:25.767Z,19.80
2019-02-05T02:47:01.208Z,20.02
2019-02-05T02:47:36.739Z,19.07
2019-02-05T02:48:12.319Z,20.37
2019-02-05T02:48:47.935Z,19.27
2019-02-05T02:49:23.427Z,18.57
2019-02-05T02:49:58.867Z,19.65
2019-02-05T02:50:34.287Z,18.87
2019-02-05T02:51:09.730Z,18.60
2019-02-05T02:51:45.309Z,18.23
2019-02-05T02:52:20.790Z,18.67
2019-02-05T02:52:56.069Z,19.55
2019-02-05T02:53:32.638Z,19.25
2019-02-05T02:54:08.325Z,18.95
2019-02-05T02:54:43.950Z,18.35
2019-02-05T02:55:19.644Z,19.82
2019-02-05T02:55:54.907Z,19.23
2019-02-05T02:56:30.445Z,19.05
2019-02-05T02:57:05.946Z,18.70
2019-02-05T02:57:41.987Z,19.23
2019-02-05T02:58:17.545Z,18.70
2019-02-05T02:58:53.047Z,19.82
2019-02-05T02:59:28.526Z,19.92
2019-02-05T03:00:05.185Z,20.45
2019-02-05T03:00:40.526Z,18.27
2019-02-05T03:01:16.346Z,18.87
2019-02-05T03:01:51.885Z,19.00
2019-02-05T03:02:27.626Z,19.50
2019-02-05T03:03:12.284Z,18.92
2019-02-05T03:03:55.861Z,19.50
2019-02-05T03:04:40.084Z,18.90
2019-02-05T03:05:24.859Z,18.77
2019-02-05T03:06:07.585Z,19.75
2019-02-05T03:06:50.133Z,19.50
2019-02-05T03:07:35.486Z,19.30
2019-02-05T03:08:16.448Z,18.62
2019-02-05T03:08:54.414Z,18.65
2019-02-05T03:09:33.435Z,19.65
2019-02-05T03:10:15.604Z,18.23
2019-02-05T03:10:51.011Z,20.30
2019-02-05T03:11:26.333Z,19.37
2019-02-05T03:12:01.865Z,19.65
2019-02-05T03:12:37.305Z,19.37
2019-02-05T03:13:12.865Z,18.37
2019-02-05T03:13:48.268Z,18.98
2019-02-05T03:14:23.746Z,18.77
2019-02-05T03:14:59.205Z,19.05
2019-02-05T03:15:34.664Z,19.48
2019-02-05T03:16:10.248Z,18.60
2019-02-05T03:16:45.845Z,18.92
2019-02-05T03:17:21.285Z,20.15
2019-02-05T03:17:57.086Z,17.48
2019-02-05T03:18:32.809Z,18.87
2019-02-05T03:19:08.269Z,20.25
2019-02-05T03:19:43.690Z,19.50
2019-02-05T03:20:19.531Z,19.70
2019-02-05T03:20:55.070Z,17.52
2019-02-05T03:21:30.509Z,18.12
2019-02-05T03:22:06.069Z,18.10
2019-02-05T03:22:44.779Z,19.52
2019-02-05T03:23:18.670Z,19.00
2019-02-05T03:23:54.068Z,19.45
2019-02-05T03:24:29.814Z,19.55
2019-02-05T03:25:06.169Z,19.45
2019-02-05T03:25:41.911Z,18.80
2019-02-05T03:26:17.489Z,18.90
2019-02-05T03:26:53.088Z,19.73
2019-02-05T03:27:28.392Z,18.65
2019-02-05T03:28:03.934Z,20.52
2019-02-05T03:28:39.550Z,19.07
2019-02-05T03:29:14.892Z,19.35
2019-02-05T03:29:50.418Z,18.87
2019-02-05T03:30:26.299Z,17.45
2019-02-05T03:31:02.028Z,19.45
2019-02-05T03:31:37.502Z,18.82
2019-02-05T03:32:13.074Z,18.00
2019-02-05T03:32:48.990Z,17.02
2019-02-05T03:33:25.028Z,17.75
2019-02-05T03:34:00.549Z,18.60
2019-02-05T03:34:35.987Z,18.05
2019-02-05T03:35:11.752Z,18.05
2019-02-05T03:35:47.276Z,18.23
2019-02-05T03:36:22.733Z,18.75
2019-02-05T03:36:58.366Z,18.00
2019-02-05T03:37:33.913Z,18.73
2019-02-05T03:38:09.750Z,19.32
2019-02-05T03:38:45.213Z,17.98
2019-02-05T03:39:20.894Z,18.62
2019-02-05T03:39:56.333Z,19.25
2019-02-05T03:41:04.627Z,18.57
2019-02-05T03:41:40.393Z,18.55
2019-02-05T03:42:15.970Z,18.67
2019-02-05T03:42:51.609Z,18.20
2019-02-05T03:43:27.188Z,18.35
2019-02-05T03:44:02.767Z,17.82
2019-02-05T03:44:38.131Z,18.15
2019-02-05T03:45:13.767Z,17.92
2019-02-05T03:45:49.395Z,17.65
2019-02-05T03:46:25.236Z,19.48
2019-02-05T03:47:01.194Z,19.45
2019-02-05T03:47:37.166Z,18.82
2019-02-05T03:48:13.033Z,18.45
2019-02-05T03:48:51.155Z,18.92
2019-02-05T03:49:27.398Z,17.10
2019-02-05T03:50:03.554Z,18.40
2019-02-05T03:50:42.506Z,18.32
2019-02-05T03:51:48.708Z,17.35
2019-02-05T03:52:30.070Z,18.40
2019-02-05T03:53:05.805Z,17.82
2019-02-05T03:53:45.826Z,17.98
2019-02-05T03:55:13.406Z,17.73
2019-02-05T03:56:20.525Z,18.57
2019-02-05T03:57:35.066Z,17.65
2019-02-05T03:59:05.254Z,17.87
2019-02-05T04:00:05.539Z,17.37
2019-02-05T04:01:35.092Z,17.00
2019-02-05T04:02:36.452Z,17.80
2019-02-05T04:03:39.467Z,18.48
2019-02-05T04:04:54.310Z,17.10
2019-02-05T04:06:13.716Z,16.65
2019-02-05T04:07:20.050Z,18.37
2019-02-05T04:08:38.171Z,17.12
2019-02-05T04:09:33.250Z,17.52
2019-02-05T04:10:38.391Z,17.65
2019-02-05T04:11:45.237Z,17.52
2019-02-05T04:12:56.730Z,17.12
2019-02-05T04:13:59.010Z,17.30
2019-02-05T04:15:18.050Z,18.05
2019-02-05T04:16:30.371Z,17.80
2019-02-05T04:17:48.990Z,17.05
2019-02-05T04:18:48.989Z,17.12
2019-02-05T04:20:07.230Z,16.93
2019-02-05T04:21:19.350Z,17.50
2019-02-05T04:22:13.689Z,17.40
2019-02-05T04:23:31.580Z,16.95
2019-02-05T04:24:45.849Z,17.87
2019-02-05T04:25:51.913Z,16.45
2019-02-05T04:27:07.170Z,16.80
2019-02-05T04:28:38.710Z,17.25
2019-02-05T04:29:59.613Z,16.52
2019-02-05T04:31:07.491Z,16.00
2019-02-05T04:32:11.072Z,16.93
2019-02-05T04:33:11.712Z,17.15
2019-02-05T04:34:34.239Z,16.85
2019-02-05T04:35:44.645Z,16.45
2019-02-05T04:36:45.825Z,16.25
2019-02-05T04:38:17.269Z,16.57
2019-02-05T04:39:29.154Z,16.77
2019-02-05T04:40:44.834Z,17.37
2019-02-05T04:41:40.797Z,16.17
2019-02-05T04:43:00.397Z,16.90
2019-02-05T04:44:08.296Z,16.60
2019-02-05T04:45:34.414Z,16.42
2019-02-05T04:46:36.473Z,15.88
2019-02-05T04:47:55.513Z,17.20
2019-02-05T04:49:20.515Z,16.20
2019-02-05T04:50:54.834Z,16.05
2019-02-05T04:51:54.194Z,15.93
2019-02-05T04:53:07.234Z,17.12
2019-02-05T04:54:10.015Z,15.80
2019-02-05T04:55:37.955Z,16.07
2019-02-05T04:56:55.993Z,16.50
2019-02-05T04:58:17.595Z,16.73
2019-02-05T04:59:17.834Z,16.57
2019-02-05T05:00:16.993Z,17.05
2019-02-05T05:01:09.454Z,16.23
2019-02-05T05:02:46.514Z,15.95
2019-02-05T05:04:02.394Z,16.12
2019-02-05T05:05:18.076Z,15.78
2019-02-05T05:06:26.975Z,15.30
2019-02-05T05:07:28.733Z,15.72
2019-02-05T05:08:28.473Z,15.40
2019-02-05T05:09:40.521Z,15.38
2019-02-05T05:10:16.032Z,16.30
2019-02-05T05:10:51.488Z,15.55
2019-02-05T05:11:26.989Z,16.57
2019-02-05T05:12:02.449Z,15.98
2019-02-05T05:12:37.988Z,15.70
2019-02-05T05:13:13.509Z,16.20
2019-02-05T05:13:49.032Z,15.50
2019-02-05T05:14:24.567Z,16.35
2019-02-05T05:15:01.034Z,16.02
2019-02-05T05:15:36.594Z,15.68
2019-02-05T05:16:12.347Z,15.83
2019-02-05T05:16:47.946Z,16.05
2019-02-05T05:17:23.809Z,16.55
2019-02-05T05:17:59.225Z,16.93
2019-02-05T05:18:35.145Z,15.85
2019-02-05T05:19:11.344Z,15.78
2019-02-05T05:19:47.409Z,16.52
2019-02-05T05:20:22.917Z,16.87
2019-02-05T05:20:58.251Z,15.23
2019-02-05T05:21:34.489Z,16.50
2019-02-05T05:22:10.830Z,15.83
2019-02-05T05:22:46.487Z,16.32
2019-02-05T05:23:22.209Z,16.20
2019-02-05T05:23:58.272Z,16.15
2019-02-05T05:24:34.174Z,15.90
2019-02-05T05:25:11.074Z,16.93
2019-02-05T05:25:46.693Z,16.27
2019-02-05T05:26:22.501Z,15.45
2019-02-05T05:26:58.152Z,15.38
2019-02-05T05:27:33.684Z,16.93
2019-02-05T05:28:10.453Z,16.07
2019-02-05T05:28:46.452Z,15.88
2019-02-05T05:29:22.053Z,15.28
2019-02-05T05:29:58.794Z,15.83
2019-02-05T05:30:34.570Z,15.63
2019-02-05T05:31:10.059Z,15.55
2019-02-05T05:31:45.735Z,16.50
2019-02-05T05:32:21.556Z,15.60
2019-02-05T05:32:57.690Z,15.70
2019-02-05T05:33:33.209Z,15.93
2019-02-05T05:34:08.847Z,15.70
2019-02-05T05:34:44.806Z,15.35
2019-02-05T05:35:20.310Z,17.17
2019-02-05T05:35:56.055Z,16.70
2019-02-05T05:36:31.518Z,16.00
2019-02-05T05:37:05.264Z,16.02
2019-02-05T05:37:40.725Z,15.35
2019-02-05T05:38:16.644Z,16.57
2019-02-05T05:38:52.284Z,16.15
2019-02-05T05:39:28.164Z,15.05
2019-02-05T05:40:03.950Z,15.68
2019-02-05T05:40:39.408Z,16.17
2019-02-05T05:41:14.856Z,15.93
2019-02-05T05:41:50.407Z,15.43
2019-02-05T05:42:26.487Z,14.87
2019-02-05T05:43:01.888Z,15.85
2019-02-05T05:43:37.364Z,14.85
2019-02-05T05:44:12.925Z,16.52
2019-02-05T05:44:48.544Z,15.55
2019-02-05T05:45:23.974Z,16.25
2019-02-05T05:45:59.500Z,14.95
2019-02-05T05:46:35.052Z,15.90
2019-02-05T05:47:10.475Z,15.05
2019-02-05T05:47:46.192Z,16.20
2019-02-05T05:48:21.772Z,15.53
2019-02-05T05:48:57.423Z,15.65
2019-02-05T05:49:33.019Z,15.60
2019-02-05T05:50:10.729Z,14.55
2019-02-05T05:50:46.228Z,15.28
2019-02-05T05:51:21.749Z,15.58
2019-02-05T05:51:57.328Z,15.30
2019-02-05T05:52:32.708Z,14.98
2019-02-05T05:53:08.150Z,15.85
2019-02-05T05:53:43.690Z,17.45
2019-02-05T05:54:22.118Z,16.75
2019-02-05T05:54:57.608Z,16.48
2019-02-05T05:55:33.228Z,15.83
2019-02-05T05:56:08.789Z,14.83
2019-02-05T05:56:44.590Z,15.25
2019-02-05T05:57:20.169Z,15.20
2019-02-05T05:57:55.916Z,15.15
2019-02-05T05:58:31.348Z,17.40
2019-02-05T05:59:06.769Z,23.42
2019-02-05T05:59:42.208Z,18.73
2019-02-05T06:00:20.048Z,17.60
2019-02-05T06:00:55.500Z,16.45
2019-02-05T06:01:31.128Z,17.37
2019-02-05T06:02:06.870Z,16.52
2019-02-05T06:02:42.304Z,16.25
2019-02-05T06:03:17.974Z,16.12
2019-02-05T06:03:53.485Z,16.73
2019-02-05T06:04:29.005Z,16.10
2019-02-05T06:05:06.210Z,15.72
2019-02-05T06:05:41.706Z,15.63
2019-02-05T06:06:17.166Z,15.90
2019-02-05T06:06:52.704Z,16.15
2019-02-05T06:07:28.143Z,15.60
2019-02-05T06:08:03.705Z,15.78
2019-02-05T06:08:39.444Z,15.45
2019-02-05T06:09:15.280Z,16.27
2019-02-05T06:09:51.657Z,16.02
2019-02-05T06:10:27.477Z,16.05
2019-02-05T06:11:03.416Z,16.07
2019-02-05T06:11:39.476Z,15.13
2019-02-05T06:12:15.260Z,16.15
2019-02-05T06:12:51.036Z,16.10
2019-02-05T06:13:27.021Z,16.42
2019-02-05T06:14:03.615Z,16.37
2019-02-05T06:14:39.396Z,15.53
2019-02-05T06:15:15.736Z,15.05
2019-02-05T06:15:51.476Z,15.75
2019-02-05T06:16:27.216Z,16.15
2019-02-05T06:17:02.936Z,15.60
2019-02-05T06:17:38.809Z,16.32
2019-02-05T06:18:15.101Z,15.68
2019-02-05T06:18:50.972Z,14.93
2019-02-05T06:19:26.789Z,15.83
2019-02-05T06:20:02.696Z,15.72
2019-02-05T06:20:38.593Z,16.12
2019-02-05T06:21:14.403Z,16.12
2019-02-05T06:21:50.273Z,15.45
2019-02-05T06:22:25.984Z,15.58
2019-02-05T06:23:01.890Z,15.43
2019-02-05T06:23:37.716Z,15.85
2019-02-05T06:24:13.925Z,16.37
2019-02-05T06:24:49.998Z,15.75
2019-02-05T06:25:25.707Z,15.38
2019-02-05T06:26:01.424Z,15.72
2019-02-05T06:26:37.273Z,15.58
2019-02-05T06:27:13.544Z,16.90
2019-02-05T06:27:49.427Z,15.18
2019-02-05T06:28:34.454Z,14.50
2019-02-05T06:29:02.560Z,15.05
2019-02-05T06:29:38.341Z,15.95
2019-02-05T06:30:15.974Z,16.07
2019-02-05T06:30:51.753Z,15.68
2019-02-05T06:31:27.554Z,15.83
2019-02-05T06:32:03.339Z,15.23
2019-02-05T06:32:39.219Z,15.88
2019-02-05T06:33:15.060Z,14.87
2019-02-05T06:33:50.860Z,15.95
2019-02-05T06:34:26.560Z,14.95
2019-02-05T06:35:02.260Z,15.32
2019-02-05T06:35:38.045Z,15.45
2019-02-05T06:36:13.820Z,15.35
2019-02-05T06:36:49.838Z,16.12
2019-02-05T06:37:25.637Z,16.23
2019-02-05T06:38:01.956Z,15.83
2019-02-05T06:38:37.750Z,15.03
2019-02-05T06:39:13.365Z,15.28
2019-02-05T06:39:50.359Z,16.42
2019-02-05T06:40:26.370Z,16.35
2019-02-05T06:41:02.453Z,15.35
2019-02-05T06:41:38.672Z,15.50
2019-02-05T06:42:15.684Z,15.20
2019-02-05T06:42:51.735Z,14.65
2019-02-05T06:43:27.491Z,15.48
2019-02-05T06:44:03.679Z,16.30
2019-02-05T06:44:39.644Z,15.35
2019-02-05T06:45:17.375Z,15.55
2019-02-05T06:45:53.275Z,15.90
2019-02-05T06:46:29.067Z,15.38
2019-02-05T06:47:04.830Z,14.80
2019-02-05T06:47:41.079Z,15.55
2019-02-05T06:48:16.767Z,16.15
2019-02-05T06:48:52.795Z,15.93
2019-02-05T06:49:28.959Z,15.50
2019-02-05T06:50:05.497Z,15.05
2019-02-05T06:50:41.507Z,15.03
2019-02-05T06:51:17.104Z,14.95
2019-02-05T06:51:52.956Z,15.68
2019-02-05T06:52:29.020Z,14.80
2019-02-05T06:53:05.043Z,15.80
2019-02-05T06:53:40.889Z,14.07
2019-02-05T06:54:16.803Z,15.05
2019-02-05T06:54:52.523Z,15.63
2019-02-05T06:55:29.150Z,15.43
2019-02-05T06:56:04.869Z,15.08
2019-02-05T06:56:42.348Z,14.18
2019-02-05T06:57:17.609Z,14.40
2019-02-05T06:57:53.350Z,16.00
2019-02-05T06:58:28.748Z,15.18
2019-02-05T06:59:04.818Z,15.13
2019-02-05T06:59:40.458Z,15.10
2019-02-05T07:00:19.211Z,15.65
2019-02-05T07:00:54.755Z,14.30
2019-02-05T07:01:30.307Z,15.65
2019-02-05T07:02:07.586Z,15.18
2019-02-05T07:02:43.127Z,14.53
2019-02-05T07:03:18.664Z,15.98
2019-02-05T07:03:54.285Z,15.25
2019-02-05T07:04:29.624Z,15.28
2019-02-05T07:05:05.704Z,15.10
2019-02-05T07:05:41.206Z,14.83
2019-02-05T07:06:17.003Z,14.53
2019-02-05T07:06:52.544Z,14.90
2019-02-05T07:07:28.112Z,14.70
2019-02-05T07:08:03.614Z,15.40
2019-02-05T07:08:39.089Z,14.63
2019-02-05T07:09:14.914Z,15.95
2019-02-05T07:09:50.348Z,15.90
2019-02-05T07:10:26.012Z,15.88
2019-02-05T07:11:01.585Z,15.90
2019-02-05T07:11:37.233Z,15.25
2019-02-05T07:12:12.672Z,14.85
2019-02-05T07:12:48.091Z,15.48
2019-02-05T07:13:23.627Z,14.75
2019-02-05T07:13:59.048Z,15.85
2019-02-05T07:14:35.098Z,14.25
2019-02-05T07:15:10.982Z,16.73
2019-02-05T07:15:46.629Z,15.95
2019-02-05T07:16:22.449Z,15.08
2019-02-05T07:16:57.888Z,16.30
2019-02-05T07:17:33.722Z,14.95
2019-02-05T07:18:09.347Z,15.50
2019-02-05T07:18:45.164Z,14.83
2019-02-05T07:19:20.849Z,15.45
2019-02-05T07:19:56.442Z,15.93
2019-02-05T07:20:31.970Z,15.38
2019-02-05T07:21:07.429Z,16.02
2019-02-05T07:21:42.758Z,15.50
2019-02-05T07:22:18.369Z,16.15
2019-02-05T07:22:55.798Z,16.00
2019-02-05T07:23:31.813Z,15.68
2019-02-05T07:24:07.573Z,15.25
2019-02-05T07:24:43.044Z,15.40
2019-02-05T07:25:19.403Z,16.02
2019-02-05T07:25:55.063Z,16.17
2019-02-05T07:26:30.635Z,15.72
2019-02-05T07:27:06.095Z,15.80
2019-02-05T07:27:41.765Z,15.53
2019-02-05T07:28:17.088Z,15.18
2019-02-05T07:29:01.554Z,15.60
2019-02-05T07:29:29.574Z,15.78
2019-02-05T07:30:06.285Z,15.93
2019-02-05T07:30:41.947Z,15.23
2019-02-05T07:31:17.433Z,15.60
2019-02-05T07:31:52.834Z,15.95
2019-02-05T07:32:28.413Z,15.88
2019-02-05T07:33:04.084Z,15.80
2019-02-05T07:33:39.585Z,15.80
2019-02-05T07:34:15.034Z,15.08
2019-02-05T07:34:50.609Z,15.95
2019-02-05T07:35:26.262Z,15.95
2019-02-05T07:36:02.145Z,15.45
2019-02-05T07:36:37.804Z,15.18
2019-02-05T07:37:13.770Z,15.63
2019-02-05T07:37:49.814Z,15.43
2019-02-05T07:38:25.649Z,15.88
2019-02-05T07:39:01.314Z,15.38
2019-02-05T07:39:37.203Z,15.68
2019-02-05T07:40:14.581Z,15.90
2019-02-05T07:40:50.165Z,15.78
2019-02-05T07:41:25.867Z,16.25
2019-02-05T07:42:01.397Z,15.60
2019-02-05T07:42:37.106Z,15.10
2019-02-05T07:43:12.801Z,15.80
2019-02-05T07:43:48.311Z,15.75
2019-02-05T07:44:24.364Z,16.12
2019-02-05T07:45:00.015Z,15.40
2019-02-05T07:45:35.442Z,16.30
2019-02-05T07:46:11.164Z,15.90
2019-02-05T07:46:46.754Z,16.10
2019-02-05T07:47:23.455Z,15.83
2019-02-05T07:47:59.094Z,14.93
2019-02-05T07:48:34.853Z,16.20
2019-02-05T07:49:10.726Z,14.80
2019-02-05T07:49:46.301Z,16.77
2019-02-05T07:50:24.060Z,15.32
2019-02-05T07:50:59.849Z,15.45
2019-02-05T07:51:35.545Z,15.80
2019-02-05T07:52:11.459Z,15.83
2019-02-05T07:52:47.369Z,15.98
2019-02-05T07:53:23.520Z,16.42
2019-02-05T07:53:59.354Z,15.65
2019-02-05T07:54:34.883Z,15.32
2019-02-05T07:55:11.021Z,16.80
2019-02-05T07:55:46.454Z,15.28
2019-02-05T07:56:21.883Z,15.88
2019-02-05T07:56:57.726Z,15.50
2019-02-05T07:57:33.213Z,16.37
2019-02-05T07:58:09.069Z,16.30
2019-02-05T07:58:44.633Z,15.78
2019-02-05T07:59:20.480Z,15.95
2019-02-05T07:59:56.088Z,15.40
2019-02-05T08:00:31.909Z,15.50
2019-02-05T08:01:07.625Z,16.07
2019-02-05T08:01:43.426Z,16.32
2019-02-05T08:02:18.967Z,16.32
2019-02-05T08:02:54.466Z,16.07
2019-02-05T08:03:30.132Z,15.28
2019-02-05T08:04:06.082Z,16.62
2019-02-05T08:04:41.707Z,16.35
2019-02-05T08:05:19.364Z,16.40
2019-02-05T08:05:54.685Z,15.45
2019-02-05T08:06:30.248Z,16.77
2019-02-05T08:07:07.654Z,16.57
2019-02-05T08:07:43.306Z,16.80
2019-02-05T08:08:18.786Z,15.83
2019-02-05T08:08:54.684Z,15.20
2019-02-05T08:09:30.213Z,16.27
2019-02-05T08:10:06.365Z,16.00
2019-02-05T08:10:42.140Z,16.45
2019-02-05T08:11:17.985Z,15.88
2019-02-05T08:11:53.425Z,16.48
2019-02-05T08:12:29.450Z,15.10
2019-02-05T08:13:05.565Z,16.15
2019-02-05T08:13:41.347Z,16.00
2019-02-05T08:14:16.972Z,15.13
2019-02-05T08:14:52.611Z,16.37
2019-02-05T08:15:30.587Z,16.62
2019-02-05T08:16:06.808Z,16.60
2019-02-05T08:16:42.700Z,16.25
2019-02-05T08:17:18.212Z,16.65
2019-02-05T08:17:53.712Z,17.17
2019-02-05T08:18:29.220Z,16.32
2019-02-05T08:19:04.892Z,16.52
2019-02-05T08:19:40.471Z,16.45
2019-02-05T08:20:16.072Z,15.93
2019-02-05T08:20:51.467Z,16.48
2019-02-05T08:21:27.368Z,16.32
2019-02-05T08:22:03.168Z,16.15
2019-02-05T08:22:39.265Z,15.78
2019-02-05T08:23:14.724Z,16.42